sensor_id;sensor_type;location;lat;lon;timestamp;P1;durP1;ratioP1;P2;durP2;ratioP2
77701;SDS011;66868;42.708;23.404;2023-02-22T00:00:48;31.30;;;15.77;;
77701;SDS011;66868;42.708;23.404;2023-02-22T00:03:15;30.98;;;14.65;;
77701;SDS011;66868;42.708;23.404;2023-02-22T00:05:49;30.40;;;16.05;;
77701;SDS011;66868;42.708;23.404;2023-02-22T00:08:18;26.53;;;13.70;;
77701;SDS011;66868;42.708;23.404;2023-02-22T00:10:44;25.58;;;13.38;;
77701;SDS011;66868;42.708;23.404;2023-02-22T00:13:10;22.27;;;11.80;;
77701;SDS011;66868;42.708;23.404;2023-02-22T00:15:37;25.63;;;13.27;;
77701;SDS011;66868;42.708;23.404;2023-02-22T00:18:08;34.83;;;16.75;;
77701;SDS011;66868;42.708;23.404;2023-02-22T00:20:38;33.80;;;17.20;;
77701;SDS011;66868;42.708;23.404;2023-02-22T00:23:11;32.20;;;15.80;;
77701;SDS011;66868;42.708;23.404;2023-02-22T00:25:39;31.25;;;16.90;;
77701;SDS011;66868;42.708;23.404;2023-02-22T00:28:05;38.40;;;18.63;;
77701;SDS011;66868;42.708;23.404;2023-02-22T00:30:31;43.25;;;19.38;;
77701;SDS011;66868;42.708;23.404;2023-02-22T00:32:57;46.08;;;22.15;;
77701;SDS011;66868;42.708;23.404;2023-02-22T00:35:24;40.25;;;19.73;;
77701;SDS011;66868;42.708;23.404;2023-02-22T00:37:51;38.20;;;19.48;;
77701;SDS011;66868;42.708;23.404;2023-02-22T00:40:20;37.97;;;20.10;;
77701;SDS011;66868;42.708;23.404;2023-02-22T00:42:47;42.45;;;21.42;;
77701;SDS011;66868;42.708;23.404;2023-02-22T00:45:17;41.67;;;19.70;;
77701;SDS011;66868;42.708;23.404;2023-02-22T00:47:47;43.10;;;21.58;;
77701;SDS011;66868;42.708;23.404;2023-02-22T00:50:13;53.50;;;24.75;;
77701;SDS011;66868;42.708;23.404;2023-02-22T00:52:40;64.30;;;28.63;;
77701;SDS011;66868;42.708;23.404;2023-02-22T00:55:06;66.85;;;29.13;;
77701;SDS011;66868;42.708;23.404;2023-02-22T00:57:33;55.25;;;25.25;;
77701;SDS011;66868;42.708;23.404;2023-02-22T00:59:59;48.88;;;24.48;;
77701;SDS011;66868;42.708;23.404;2023-02-22T01:02:35;49.40;;;23.92;;
77701;SDS011;66868;42.708;23.404;2023-02-22T01:05:02;49.83;;;25.00;;
77701;SDS011;66868;42.708;23.404;2023-02-22T01:07:27;56.97;;;25.03;;
77701;SDS011;66868;42.708;23.404;2023-02-22T01:09:53;52.83;;;26.07;;
77701;SDS011;66868;42.708;23.404;2023-02-22T01:12:18;52.53;;;26.55;;
77701;SDS011;66868;42.708;23.404;2023-02-22T01:14:44;55.23;;;26.97;;
77701;SDS011;66868;42.708;23.404;2023-02-22T01:17:10;55.20;;;26.10;;
77701;SDS011;66868;42.708;23.404;2023-02-22T01:19:35;55.43;;;25.00;;
77701;SDS011;66868;42.708;23.404;2023-02-22T01:22:01;49.50;;;22.20;;
77701;SDS011;66868;42.708;23.404;2023-02-22T01:24:26;61.80;;;27.37;;
77701;SDS011;66868;42.708;23.404;2023-02-22T01:26:51;58.30;;;25.77;;
77701;SDS011;66868;42.708;23.404;2023-02-22T01:29:17;74.73;;;31.43;;
77701;SDS011;66868;42.708;23.404;2023-02-22T01:31:49;69.13;;;28.07;;
77701;SDS011;66868;42.708;23.404;2023-02-22T01:34:17;95.73;;;37.33;;
77701;SDS011;66868;42.708;23.404;2023-02-22T01:36:42;103.17;;;36.80;;
77701;SDS011;66868;42.708;23.404;2023-02-22T01:39:08;96.23;;;35.67;;
77701;SDS011;66868;42.708;23.404;2023-02-22T01:41:34;69.53;;;28.73;;
77701;SDS011;66868;42.708;23.404;2023-02-22T01:47:03;42.90;;;18.93;;
77701;SDS011;66868;42.708;23.404;2023-02-22T01:49:51;33.70;;;18.03;;
77701;SDS011;66868;42.708;23.404;2023-02-22T01:52:17;44.87;;;19.83;;
77701;SDS011;66868;42.708;23.404;2023-02-22T01:54:46;34.37;;;18.27;;
77701;SDS011;66868;42.708;23.404;2023-02-22T01:57:30;39.70;;;19.27;;
77701;SDS011;66868;42.708;23.404;2023-02-22T02:00:02;43.50;;;19.60;;
77701;SDS011;66868;42.708;23.404;2023-02-22T02:02:37;44.83;;;20.60;;
77701;SDS011;66868;42.708;23.404;2023-02-22T02:05:08;70.40;;;26.97;;
77701;SDS011;66868;42.708;23.404;2023-02-22T02:07:34;68.20;;;27.27;;
77701;SDS011;66868;42.708;23.404;2023-02-22T02:10:03;65.60;;;26.00;;
77701;SDS011;66868;42.708;23.404;2023-02-22T02:12:33;59.90;;;25.13;;
77701;SDS011;66868;42.708;23.404;2023-02-22T02:17:43;50.07;;;23.23;;
77701;SDS011;66868;42.708;23.404;2023-02-22T02:20:12;59.83;;;24.70;;
77701;SDS011;66868;42.708;23.404;2023-02-22T02:25:40;60.37;;;25.70;;
77701;SDS011;66868;42.708;23.404;2023-02-22T02:33:59;49.20;;;24.27;;
77701;SDS011;66868;42.708;23.404;2023-02-22T02:36:41;45.40;;;23.03;;
77701;SDS011;66868;42.708;23.404;2023-02-22T02:39:29;34.40;;;19.97;;
77701;SDS011;66868;42.708;23.404;2023-02-22T02:42:06;38.43;;;20.63;;
77701;SDS011;66868;42.708;23.404;2023-02-22T02:44:36;42.27;;;21.13;;
77701;SDS011;66868;42.708;23.404;2023-02-22T02:47:12;46.87;;;21.60;;
77701;SDS011;66868;42.708;23.404;2023-02-22T02:49:45;47.37;;;21.90;;
77701;SDS011;66868;42.708;23.404;2023-02-22T02:52:15;46.10;;;20.63;;
77701;SDS011;66868;42.708;23.404;2023-02-22T02:54:44;39.87;;;19.63;;
77701;SDS011;66868;42.708;23.404;2023-02-22T02:57:11;46.80;;;22.23;;
77701;SDS011;66868;42.708;23.404;2023-02-22T02:59:37;45.63;;;21.03;;
77701;SDS011;66868;42.708;23.404;2023-02-22T03:04:56;37.43;;;20.27;;
77701;SDS011;66868;42.708;23.404;2023-02-22T03:18:51;49.87;;;22.63;;
77701;SDS011;66868;42.708;23.404;2023-02-22T03:21:25;46.13;;;21.20;;
77701;SDS011;66868;42.708;23.404;2023-02-22T03:24:09;42.07;;;18.97;;
77701;SDS011;66868;42.708;23.404;2023-02-22T03:26:44;37.23;;;17.77;;
77701;SDS011;66868;42.708;23.404;2023-02-22T03:29:16;29.23;;;14.60;;
77701;SDS011;66868;42.708;23.404;2023-02-22T03:31:47;32.53;;;13.17;;
77701;SDS011;66868;42.708;23.404;2023-02-22T03:34:19;23.67;;;11.70;;
77701;SDS011;66868;42.708;23.404;2023-02-22T03:36:56;16.50;;;9.60;;
77701;SDS011;66868;42.708;23.404;2023-02-22T03:39:26;15.67;;;9.10;;
77701;SDS011;66868;42.708;23.404;2023-02-22T03:41:56;13.10;;;8.30;;
77701;SDS011;66868;42.708;23.404;2023-02-22T03:44:28;18.83;;;8.10;;
77701;SDS011;66868;42.708;23.404;2023-02-22T03:46:59;15.03;;;8.67;;
77701;SDS011;66868;42.708;23.404;2023-02-22T03:52:00;19.03;;;10.70;;
77701;SDS011;66868;42.708;23.404;2023-02-22T03:54:28;31.17;;;15.23;;
77701;SDS011;66868;42.708;23.404;2023-02-22T03:56:57;36.17;;;18.90;;
77701;SDS011;66868;42.708;23.404;2023-02-22T03:59:28;37.43;;;19.03;;
77701;SDS011;66868;42.708;23.404;2023-02-22T04:01:55;43.90;;;19.60;;
77701;SDS011;66868;42.708;23.404;2023-02-22T04:04:21;42.07;;;20.17;;
77701;SDS011;66868;42.708;23.404;2023-02-22T04:06:48;39.83;;;21.27;;
77701;SDS011;66868;42.708;23.404;2023-02-22T04:09:14;48.50;;;24.13;;
77701;SDS011;66868;42.708;23.404;2023-02-22T04:11:40;48.60;;;24.87;;
77701;SDS011;66868;42.708;23.404;2023-02-22T04:14:06;60.37;;;27.20;;
77701;SDS011;66868;42.708;23.404;2023-02-22T04:16:31;54.20;;;26.63;;
77701;SDS011;66868;42.708;23.404;2023-02-22T04:18:57;52.53;;;23.07;;
77701;SDS011;66868;42.708;23.404;2023-02-22T04:21:22;49.40;;;24.37;;
77701;SDS011;66868;42.708;23.404;2023-02-22T04:23:47;48.80;;;24.63;;
77701;SDS011;66868;42.708;23.404;2023-02-22T04:26:13;38.23;;;21.70;;
77701;SDS011;66868;42.708;23.404;2023-02-22T04:28:38;43.40;;;21.97;;
77701;SDS011;66868;42.708;23.404;2023-02-22T04:31:04;47.10;;;22.97;;
77701;SDS011;66868;42.708;23.404;2023-02-22T04:33:29;40.77;;;21.37;;
77701;SDS011;66868;42.708;23.404;2023-02-22T04:35:55;39.77;;;21.73;;
77701;SDS011;66868;42.708;23.404;2023-02-22T04:38:22;53.67;;;25.43;;
77701;SDS011;66868;42.708;23.404;2023-02-22T04:40:50;51.93;;;23.30;;
77701;SDS011;66868;42.708;23.404;2023-02-22T04:43:16;48.67;;;22.10;;
77701;SDS011;66868;42.708;23.404;2023-02-22T04:45:41;32.07;;;17.00;;
77701;SDS011;66868;42.708;23.404;2023-02-22T04:48:06;31.73;;;15.03;;
77701;SDS011;66868;42.708;23.404;2023-02-22T04:50:32;26.63;;;13.53;;
77701;SDS011;66868;42.708;23.404;2023-02-22T04:52:57;31.97;;;15.10;;
77701;SDS011;66868;42.708;23.404;2023-02-22T04:55:23;28.47;;;13.60;;
77701;SDS011;66868;42.708;23.404;2023-02-22T04:57:48;33.77;;;16.07;;
77701;SDS011;66868;42.708;23.404;2023-02-22T05:00:15;46.87;;;19.70;;
77701;SDS011;66868;42.708;23.404;2023-02-22T05:02:42;74.13;;;27.60;;
77701;SDS011;66868;42.708;23.404;2023-02-22T05:05:07;49.87;;;20.30;;
77701;SDS011;66868;42.708;23.404;2023-02-22T05:07:33;53.67;;;20.27;;
77701;SDS011;66868;42.708;23.404;2023-02-22T05:09:58;55.50;;;19.93;;
77701;SDS011;66868;42.708;23.404;2023-02-22T05:12:26;37.57;;;15.67;;
77701;SDS011;66868;42.708;23.404;2023-02-22T05:14:51;33.67;;;14.83;;
77701;SDS011;66868;42.708;23.404;2023-02-22T05:17:17;38.70;;;16.13;;
77701;SDS011;66868;42.708;23.404;2023-02-22T05:19:42;45.17;;;16.67;;
77701;SDS011;66868;42.708;23.404;2023-02-22T05:22:07;33.07;;;15.30;;
77701;SDS011;66868;42.708;23.404;2023-02-22T05:24:33;48.83;;;16.30;;
77701;SDS011;66868;42.708;23.404;2023-02-22T05:26:59;34.50;;;16.00;;
77701;SDS011;66868;42.708;23.404;2023-02-22T05:29:24;48.23;;;19.40;;
77701;SDS011;66868;42.708;23.404;2023-02-22T05:31:50;52.77;;;19.60;;
77701;SDS011;66868;42.708;23.404;2023-02-22T05:34:15;54.37;;;18.93;;
77701;SDS011;66868;42.708;23.404;2023-02-22T05:36:41;42.03;;;18.13;;
77701;SDS011;66868;42.708;23.404;2023-02-22T05:39:06;43.40;;;16.23;;
77701;SDS011;66868;42.708;23.404;2023-02-22T05:41:31;52.20;;;19.33;;
77701;SDS011;66868;42.708;23.404;2023-02-22T05:43:57;54.03;;;22.80;;
77701;SDS011;66868;42.708;23.404;2023-02-22T05:46:22;51.50;;;21.73;;
77701;SDS011;66868;42.708;23.404;2023-02-22T05:48:47;48.33;;;19.10;;
77701;SDS011;66868;42.708;23.404;2023-02-22T05:51:13;40.70;;;18.63;;
77701;SDS011;66868;42.708;23.404;2023-02-22T05:53:38;40.37;;;17.87;;
77701;SDS011;66868;42.708;23.404;2023-02-22T05:56:04;36.67;;;16.03;;
77701;SDS011;66868;42.708;23.404;2023-02-22T05:58:29;46.97;;;18.97;;
77701;SDS011;66868;42.708;23.404;2023-02-22T06:00:55;34.90;;;17.67;;
77701;SDS011;66868;42.708;23.404;2023-02-22T06:03:20;38.70;;;20.27;;
77701;SDS011;66868;42.708;23.404;2023-02-22T06:05:46;38.00;;;20.40;;
77701;SDS011;66868;42.708;23.404;2023-02-22T06:08:11;34.67;;;20.77;;
77701;SDS011;66868;42.708;23.404;2023-02-22T06:10:37;39.43;;;20.27;;
77701;SDS011;66868;42.708;23.404;2023-02-22T06:13:03;170.90;;;27.60;;
77701;SDS011;66868;42.708;23.404;2023-02-22T06:15:29;53.13;;;20.17;;
77701;SDS011;66868;42.708;23.404;2023-02-22T06:17:56;32.63;;;18.00;;
77701;SDS011;66868;42.708;23.404;2023-02-22T06:20:23;28.23;;;17.40;;
77701;SDS011;66868;42.708;23.404;2023-02-22T06:22:51;32.70;;;17.70;;
77701;SDS011;66868;42.708;23.404;2023-02-22T06:25:18;41.53;;;18.50;;
77701;SDS011;66868;42.708;23.404;2023-02-22T06:27:46;37.10;;;17.40;;
77701;SDS011;66868;42.708;23.404;2023-02-22T06:30:12;34.20;;;18.13;;
77701;SDS011;66868;42.708;23.404;2023-02-22T06:32:39;48.60;;;21.10;;
77701;SDS011;66868;42.708;23.404;2023-02-22T06:35:05;39.47;;;21.23;;
77701;SDS011;66868;42.708;23.404;2023-02-22T06:37:31;33.20;;;20.23;;
77701;SDS011;66868;42.708;23.404;2023-02-22T06:39:56;40.47;;;18.40;;
77701;SDS011;66868;42.708;23.404;2023-02-22T06:42:21;30.77;;;18.13;;
77701;SDS011;66868;42.708;23.404;2023-02-22T06:44:48;29.47;;;18.27;;
77701;SDS011;66868;42.708;23.404;2023-02-22T06:47:13;44.83;;;18.47;;
77701;SDS011;66868;42.708;23.404;2023-02-22T06:49:38;33.33;;;18.17;;
77701;SDS011;66868;42.708;23.404;2023-02-22T06:52:04;34.10;;;18.73;;
77701;SDS011;66868;42.708;23.404;2023-02-22T06:54:30;34.47;;;18.17;;
77701;SDS011;66868;42.708;23.404;2023-02-22T06:56:56;37.13;;;17.80;;
77701;SDS011;66868;42.708;23.404;2023-02-22T06:59:21;31.40;;;18.10;;
77701;SDS011;66868;42.708;23.404;2023-02-22T07:01:47;30.47;;;16.70;;
77701;SDS011;66868;42.708;23.404;2023-02-22T07:04:13;30.50;;;16.37;;
77701;SDS011;66868;42.708;23.404;2023-02-22T07:06:43;33.67;;;16.97;;
77701;SDS011;66868;42.708;23.404;2023-02-22T07:09:13;37.27;;;17.27;;
77701;SDS011;66868;42.708;23.404;2023-02-22T07:11:40;46.17;;;16.70;;
77701;SDS011;66868;42.708;23.404;2023-02-22T07:14:06;48.57;;;16.40;;
77701;SDS011;66868;42.708;23.404;2023-02-22T07:16:31;31.87;;;15.83;;
77701;SDS011;66868;42.708;23.404;2023-02-22T07:18:57;26.77;;;15.33;;
77701;SDS011;66868;42.708;23.404;2023-02-22T07:21:24;34.33;;;16.60;;
77701;SDS011;66868;42.708;23.404;2023-02-22T07:23:53;30.37;;;14.67;;
77701;SDS011;66868;42.708;23.404;2023-02-22T07:26:20;44.73;;;16.50;;
77701;SDS011;66868;42.708;23.404;2023-02-22T07:28:47;34.40;;;16.53;;
77701;SDS011;66868;42.708;23.404;2023-02-22T07:31:13;45.23;;;17.47;;
77701;SDS011;66868;42.708;23.404;2023-02-22T07:33:38;34.23;;;17.50;;
77701;SDS011;66868;42.708;23.404;2023-02-22T07:36:03;41.40;;;17.87;;
77701;SDS011;66868;42.708;23.404;2023-02-22T07:38:30;38.63;;;17.57;;
77701;SDS011;66868;42.708;23.404;2023-02-22T07:40:56;36.30;;;16.73;;
77701;SDS011;66868;42.708;23.404;2023-02-22T07:43:22;38.60;;;17.37;;
77701;SDS011;66868;42.708;23.404;2023-02-22T07:45:50;35.25;;;17.50;;
77701;SDS011;66868;42.708;23.404;2023-02-22T07:48:17;37.67;;;17.13;;
77701;SDS011;66868;42.708;23.404;2023-02-22T07:50:44;34.10;;;16.30;;
77701;SDS011;66868;42.708;23.404;2023-02-22T07:53:17;43.70;;;16.25;;
77701;SDS011;66868;42.708;23.404;2023-02-22T07:55:47;44.00;;;15.73;;
77701;SDS011;66868;42.708;23.404;2023-02-22T07:58:20;31.70;;;15.23;;
77701;SDS011;66868;42.708;23.404;2023-02-22T08:00:48;35.38;;;16.85;;
77701;SDS011;66868;42.708;23.404;2023-02-22T08:03:15;35.42;;;15.63;;
77701;SDS011;66868;42.708;23.404;2023-02-22T08:05:46;42.78;;;15.38;;
77701;SDS011;66868;42.708;23.404;2023-02-22T08:08:14;36.22;;;15.90;;
77701;SDS011;66868;42.708;23.404;2023-02-22T08:11:00;33.50;;;15.25;;
77701;SDS011;66868;42.708;23.404;2023-02-22T08:13:25;28.00;;;15.52;;
77701;SDS011;66868;42.708;23.404;2023-02-22T08:15:51;31.58;;;15.73;;
77701;SDS011;66868;42.708;23.404;2023-02-22T08:18:18;36.03;;;16.70;;
77701;SDS011;66868;42.708;23.404;2023-02-22T08:20:45;24.80;;;14.38;;
77701;SDS011;66868;42.708;23.404;2023-02-22T08:23:13;38.97;;;14.60;;
77701;SDS011;66868;42.708;23.404;2023-02-22T08:25:39;33.25;;;14.23;;
77701;SDS011;66868;42.708;23.404;2023-02-22T08:28:06;26.25;;;14.40;;
77701;SDS011;66868;42.708;23.404;2023-02-22T08:30:35;32.40;;;15.30;;
77701;SDS011;66868;42.708;23.404;2023-02-22T08:33:02;23.95;;;14.38;;
77701;SDS011;66868;42.708;23.404;2023-02-22T08:35:28;25.67;;;12.52;;
77701;SDS011;66868;42.708;23.404;2023-02-22T08:37:57;22.15;;;12.05;;
77701;SDS011;66868;42.708;23.404;2023-02-22T08:40:25;20.20;;;12.68;;
77701;SDS011;66868;42.708;23.404;2023-02-22T08:42:52;26.40;;;13.15;;
77701;SDS011;66868;42.708;23.404;2023-02-22T08:45:18;21.02;;;12.70;;
77701;SDS011;66868;42.708;23.404;2023-02-22T08:47:44;18.95;;;12.27;;
77701;SDS011;66868;42.708;23.404;2023-02-22T08:50:15;15.60;;;10.93;;
77701;SDS011;66868;42.708;23.404;2023-02-22T08:52:42;19.40;;;11.38;;
77701;SDS011;66868;42.708;23.404;2023-02-22T08:55:07;18.30;;;11.18;;
77701;SDS011;66868;42.708;23.404;2023-02-22T08:57:32;19.75;;;11.43;;
77701;SDS011;66868;42.708;23.404;2023-02-22T08:59:58;22.60;;;11.55;;
77701;SDS011;66868;42.708;23.404;2023-02-22T09:02:23;16.33;;;11.15;;
77701;SDS011;66868;42.708;23.404;2023-02-22T09:04:49;18.90;;;11.25;;
77701;SDS011;66868;42.708;23.404;2023-02-22T09:07:14;23.80;;;11.57;;
77701;SDS011;66868;42.708;23.404;2023-02-22T09:09:41;24.45;;;11.98;;
77701;SDS011;66868;42.708;23.404;2023-02-22T09:12:07;22.65;;;10.68;;
77701;SDS011;66868;42.708;23.404;2023-02-22T09:14:33;21.48;;;11.20;;
77701;SDS011;66868;42.708;23.404;2023-02-22T09:16:58;18.45;;;11.77;;
77701;SDS011;66868;42.708;23.404;2023-02-22T09:19:24;19.05;;;11.63;;
77701;SDS011;66868;42.708;23.404;2023-02-22T09:21:53;27.20;;;10.88;;
77701;SDS011;66868;42.708;23.404;2023-02-22T09:24:19;18.58;;;11.35;;
77701;SDS011;66868;42.708;23.404;2023-02-22T09:26:45;23.33;;;12.00;;
77701;SDS011;66868;42.708;23.404;2023-02-22T09:29:11;32.47;;;11.63;;
77701;SDS011;66868;42.708;23.404;2023-02-22T09:31:37;18.13;;;11.60;;
77701;SDS011;66868;42.708;23.404;2023-02-22T09:34:04;16.33;;;10.85;;
77701;SDS011;66868;42.708;23.404;2023-02-22T09:36:38;27.35;;;11.43;;
77701;SDS011;66868;42.708;23.404;2023-02-22T09:39:05;19.83;;;11.25;;
77701;SDS011;66868;42.708;23.404;2023-02-22T09:44:26;25.42;;;11.68;;
77701;SDS011;66868;42.708;23.404;2023-02-22T09:47:01;24.85;;;12.88;;
77701;SDS011;66868;42.708;23.404;2023-02-22T09:49:51;22.40;;;11.90;;
77701;SDS011;66868;42.708;23.404;2023-02-22T09:52:25;15.35;;;10.65;;
77701;SDS011;66868;42.708;23.404;2023-02-22T09:55:00;21.10;;;10.68;;
77701;SDS011;66868;42.708;23.404;2023-02-22T09:57:52;15.77;;;9.75;;
77701;SDS011;66868;42.708;23.404;2023-02-22T10:00:23;15.00;;;7.78;;
77701;SDS011;66868;42.708;23.404;2023-02-22T10:02:59;15.75;;;8.30;;
77701;SDS011;66868;42.708;23.404;2023-02-22T10:05:40;15.82;;;7.10;;
77701;SDS011;66868;42.708;23.404;2023-02-22T10:08:10;13.57;;;8.05;;
77701;SDS011;66868;42.708;23.404;2023-02-22T10:10:38;15.45;;;6.57;;
77701;SDS011;66868;42.708;23.404;2023-02-22T10:16:05;8.98;;;4.80;;
77701;SDS011;66868;42.708;23.404;2023-02-22T10:27:15;5.63;;;4.03;;
77701;SDS011;66868;42.708;23.404;2023-02-22T10:32:49;7.60;;;3.47;;
77701;SDS011;66868;42.708;23.404;2023-02-22T10:35:23;6.43;;;3.95;;
77701;SDS011;66868;42.708;23.404;2023-02-22T10:37:52;17.17;;;3.58;;
77701;SDS011;66868;42.708;23.404;2023-02-22T10:40:23;3.92;;;2.63;;
77701;SDS011;66868;42.708;23.404;2023-02-22T10:42:56;3.13;;;2.92;;
77701;SDS011;66868;42.708;23.404;2023-02-22T10:45:26;6.20;;;3.20;;
77701;SDS011;66868;42.708;23.404;2023-02-22T10:47:54;7.00;;;2.85;;
77701;SDS011;66868;42.708;23.404;2023-02-22T10:50:23;3.42;;;3.13;;
77701;SDS011;66868;42.708;23.404;2023-02-22T10:52:50;3.88;;;3.25;;
77701;SDS011;66868;42.708;23.404;2023-02-22T10:55:16;3.17;;;2.97;;
77701;SDS011;66868;42.708;23.404;2023-02-22T10:57:43;3.95;;;2.70;;
77701;SDS011;66868;42.708;23.404;2023-02-22T11:02:53;6.93;;;3.42;;
77701;SDS011;66868;42.708;23.404;2023-02-22T11:05:39;3.58;;;3.28;;
77701;SDS011;66868;42.708;23.404;2023-02-22T11:10:42;5.30;;;2.97;;
77701;SDS011;66868;42.708;23.404;2023-02-22T11:13:18;3.22;;;2.92;;
77701;SDS011;66868;42.708;23.404;2023-02-22T11:16:16;3.28;;;3.08;;
77701;SDS011;66868;42.708;23.404;2023-02-22T11:18:44;11.35;;;2.70;;
77701;SDS011;66868;42.708;23.404;2023-02-22T11:21:11;5.53;;;2.90;;
77701;SDS011;66868;42.708;23.404;2023-02-22T11:23:38;8.38;;;3.20;;
77701;SDS011;66868;42.708;23.404;2023-02-22T11:28:34;4.70;;;2.50;;
77701;SDS011;66868;42.708;23.404;2023-02-22T11:31:09;3.20;;;3.00;;
77701;SDS011;66868;42.708;23.404;2023-02-22T11:33:39;4.43;;;2.63;;
77701;SDS011;66868;42.708;23.404;2023-02-22T11:36:13;4.47;;;2.47;;
77701;SDS011;66868;42.708;23.404;2023-02-22T11:38:55;3.08;;;2.88;;
77701;SDS011;66868;42.708;23.404;2023-02-22T11:41:28;5.25;;;3.47;;
77701;SDS011;66868;42.708;23.404;2023-02-22T11:44:10;3.58;;;3.15;;
77701;SDS011;66868;42.708;23.404;2023-02-22T11:46:45;3.53;;;3.20;;
77701;SDS011;66868;42.708;23.404;2023-02-22T11:49:11;3.50;;;3.20;;
77701;SDS011;66868;42.708;23.404;2023-02-22T11:51:48;7.72;;;3.55;;
77701;SDS011;66868;42.708;23.404;2023-02-22T12:19:40;5.03;;;3.20;;
77701;SDS011;66868;42.708;23.404;2023-02-22T12:22:11;4.05;;;3.53;;
77701;SDS011;66868;42.708;23.404;2023-02-22T12:24:45;3.22;;;2.92;;
77701;SDS011;66868;42.708;23.404;2023-02-22T12:27:39;4.63;;;2.95;;
77701;SDS011;66868;42.708;23.404;2023-02-22T12:30:12;16.80;;;3.22;;
77701;SDS011;66868;42.708;23.404;2023-02-22T12:32:44;3.00;;;2.75;;
77701;SDS011;66868;42.708;23.404;2023-02-22T12:35:27;3.22;;;3.03;;
77701;SDS011;66868;42.708;23.404;2023-02-22T12:40:40;3.05;;;1.90;;
77701;SDS011;66868;42.708;23.404;2023-02-22T12:45:51;2.80;;;2.60;;
77701;SDS011;66868;42.708;23.404;2023-02-22T12:48:39;2.40;;;2.30;;
77701;SDS011;66868;42.708;23.404;2023-02-22T12:59:49;2.47;;;2.38;;
77701;SDS011;66868;42.708;23.404;2023-02-22T13:04:49;2.42;;;2.20;;
77701;SDS011;66868;42.708;23.404;2023-02-22T13:12:47;4.00;;;2.10;;
77701;SDS011;66868;42.708;23.404;2023-02-22T13:15:40;2.08;;;1.98;;
77701;SDS011;66868;42.708;23.404;2023-02-22T13:20:52;6.78;;;2.33;;
77701;SDS011;66868;42.708;23.404;2023-02-22T13:26:09;1.50;;;1.40;;
77701;SDS011;66868;42.708;23.404;2023-02-22T13:28:45;1.60;;;1.50;;
77701;SDS011;66868;42.708;23.404;2023-02-22T13:31:33;1.55;;;1.55;;
77701;SDS011;66868;42.708;23.404;2023-02-22T13:37:04;2.75;;;1.85;;
77701;SDS011;66868;42.708;23.404;2023-02-22T13:39:51;2.00;;;1.75;;
77701;SDS011;66868;42.708;23.404;2023-02-22T13:45:25;4.25;;;2.03;;
77701;SDS011;66868;42.708;23.404;2023-02-22T13:51:08;2.83;;;1.98;;
77701;SDS011;66868;42.708;23.404;2023-02-22T13:56:18;8.55;;;2.47;;
77701;SDS011;66868;42.708;23.404;2023-02-22T13:58:54;1.90;;;1.90;;
77701;SDS011;66868;42.708;23.404;2023-02-22T14:20:31;5.85;;;1.83;;
77701;SDS011;66868;42.708;23.404;2023-02-22T14:25:47;2.08;;;1.80;;
77701;SDS011;66868;42.708;23.404;2023-02-22T14:31:20;4.75;;;2.10;;
77701;SDS011;66868;42.708;23.404;2023-02-22T14:41:55;3.05;;;1.77;;
77701;SDS011;66868;42.708;23.404;2023-02-22T14:44:33;2.95;;;2.10;;
77701;SDS011;66868;42.708;23.404;2023-02-22T14:47:15;5.45;;;1.92;;
77701;SDS011;66868;42.708;23.404;2023-02-22T14:49:45;6.30;;;1.98;;
77701;SDS011;66868;42.708;23.404;2023-02-22T14:52:20;2.65;;;1.75;;
77701;SDS011;66868;42.708;23.404;2023-02-22T14:54:51;1.88;;;1.63;;
77701;SDS011;66868;42.708;23.404;2023-02-22T15:00:37;5.00;;;1.77;;
77701;SDS011;66868;42.708;23.404;2023-02-22T15:03:02;2.67;;;2.47;;
77701;SDS011;66868;42.708;23.404;2023-02-22T15:05:33;4.60;;;2.70;;
77701;SDS011;66868;42.708;23.404;2023-02-22T15:08:03;4.32;;;3.10;;
77701;SDS011;66868;42.708;23.404;2023-02-22T15:10:47;3.00;;;2.80;;
77701;SDS011;66868;42.708;23.404;2023-02-22T15:13:18;3.03;;;2.83;;
77701;SDS011;66868;42.708;23.404;2023-02-22T15:16:03;2.83;;;2.72;;
77701;SDS011;66868;42.708;23.404;2023-02-22T15:18:33;9.80;;;3.45;;
77701;SDS011;66868;42.708;23.404;2023-02-22T15:21:05;3.25;;;2.70;;
77701;SDS011;66868;42.708;23.404;2023-02-22T15:23:44;3.08;;;2.90;;
77701;SDS011;66868;42.708;23.404;2023-02-22T15:28:54;3.80;;;3.45;;
77701;SDS011;66868;42.708;23.404;2023-02-22T15:31:25;6.05;;;3.33;;
77701;SDS011;66868;42.708;23.404;2023-02-22T15:33:54;3.88;;;3.38;;
77701;SDS011;66868;42.708;23.404;2023-02-22T15:36:23;3.85;;;3.53;;
77701;SDS011;66868;42.708;23.404;2023-02-22T15:38:52;5.47;;;3.65;;
77701;SDS011;66868;42.708;23.404;2023-02-22T15:41:23;4.30;;;3.70;;
77701;SDS011;66868;42.708;23.404;2023-02-22T15:43:58;6.85;;;3.45;;
77701;SDS011;66868;42.708;23.404;2023-02-22T15:46:28;8.82;;;3.92;;
77701;SDS011;66868;42.708;23.404;2023-02-22T15:49:05;4.50;;;3.80;;
77701;SDS011;66868;42.708;23.404;2023-02-22T15:51:39;6.85;;;4.35;;
77701;SDS011;66868;42.708;23.404;2023-02-22T15:54:10;4.63;;;4.15;;
77701;SDS011;66868;42.708;23.404;2023-02-22T15:56:40;5.78;;;4.30;;
77701;SDS011;66868;42.708;23.404;2023-02-22T15:59:19;6.50;;;4.38;;
77701;SDS011;66868;42.708;23.404;2023-02-22T16:01:47;9.50;;;4.82;;
77701;SDS011;66868;42.708;23.404;2023-02-22T16:04:16;10.60;;;6.03;;
77701;SDS011;66868;42.708;23.404;2023-02-22T16:06:44;6.40;;;5.80;;
77701;SDS011;66868;42.708;23.404;2023-02-22T16:09:17;12.70;;;6.30;;
77701;SDS011;66868;42.708;23.404;2023-02-22T16:11:49;6.40;;;5.82;;
77701;SDS011;66868;42.708;23.404;2023-02-22T16:14:38;12.70;;;6.28;;
77701;SDS011;66868;42.708;23.404;2023-02-22T16:17:22;11.73;;;6.03;;
77701;SDS011;66868;42.708;23.404;2023-02-22T16:19:55;13.95;;;6.78;;
77701;SDS011;66868;42.708;23.404;2023-02-22T16:27:41;6.38;;;5.88;;
77701;SDS011;66868;42.708;23.404;2023-02-22T16:32:45;9.93;;;6.60;;
77701;SDS011;66868;42.708;23.404;2023-02-22T16:35:14;8.77;;;6.30;;
77701;SDS011;66868;42.708;23.404;2023-02-22T16:37:47;8.45;;;6.18;;
77701;SDS011;66868;42.708;23.404;2023-02-22T16:40:18;8.27;;;6.15;;
77701;SDS011;66868;42.708;23.404;2023-02-22T16:42:47;11.82;;;6.40;;
77701;SDS011;66868;42.708;23.404;2023-02-22T16:45:16;10.93;;;6.30;;
77701;SDS011;66868;42.708;23.404;2023-02-22T16:47:45;7.50;;;5.97;;
77701;SDS011;66868;42.708;23.404;2023-02-22T16:50:13;6.97;;;5.38;;
77701;SDS011;66868;42.708;23.404;2023-02-22T16:52:40;11.85;;;6.63;;
77701;SDS011;66868;42.708;23.404;2023-02-22T16:55:09;9.57;;;6.30;;
77701;SDS011;66868;42.708;23.404;2023-02-22T16:57:38;10.90;;;5.70;;
77701;SDS011;66868;42.708;23.404;2023-02-22T17:00:06;8.77;;;6.30;;
77701;SDS011;66868;42.708;23.404;2023-02-22T17:02:37;7.70;;;6.10;;
77701;SDS011;66868;42.708;23.404;2023-02-22T17:05:03;11.10;;;6.90;;
77701;SDS011;66868;42.708;23.404;2023-02-22T17:07:29;9.32;;;7.20;;
77701;SDS011;66868;42.708;23.404;2023-02-22T17:09:56;22.15;;;14.48;;
77701;SDS011;66868;42.708;23.404;2023-02-22T17:12:25;21.70;;;12.77;;
77701;SDS011;66868;42.708;23.404;2023-02-22T17:14:53;30.98;;;16.35;;
77701;SDS011;66868;42.708;23.404;2023-02-22T17:17:19;22.98;;;14.35;;